Time;durP1;ratioP1;P1;durP2;ratioP2;P2;SDS_P1;SDS_P2;PMS_P1;PMS_P2;Temp;Humidity;BMP_temperature;BMP_pressure;BME280_temperature;BME280_humidity;BME280_pressure;Samples;Min_cycle;Max_cycle;Signal;HPM_P1;HPM_P2
2023/02/12 00:01:00;;;;;;;;;;;17.30;59.00;;;;;;5073241;28;1429;-70
2023/02/12 00:03:26;;;;;;;;;;;17.30;58.90;;;;;;5037789;28;1377;-71
2023/02/12 00:05:51;;;;;;;;;;;17.30;59.00;;;;;;5042013;28;881;-70
2023/02/12 00:08:17;;;;;;;;;;;17.30;59.00;;;;;;5037340;28;834;-70
2023/02/12 00:10:43;;;;;;;;;;;17.30;59.00;;;;;;5072604;28;2036;-69
2023/02/12 00:13:11;;;;;;;;;;;17.30;59.00;;;;;;5072896;28;848;-69
2023/02/12 00:15:38;;;;;;;;;;;17.30;59.00;;;;;;5072354;28;967;-70
2023/02/12 00:18:03;;;;;;;;;;;17.30;59.00;;;;;;5071927;28;825;-70
2023/02/12 00:20:28;;;;;;;;;;;17.30;59.00;;;;;;5044425;28;1226;-70
2023/02/12 00:22:54;;;;;;;;;;;17.30;59.10;;;;;;5038763;28;990;-70
2023/02/12 00:25:19;;;;;;;;;;;17.20;59.00;;;;;;5069879;28;855;-71
2023/02/12 00:27:45;;;;;;;;;;;17.30;59.10;;;;;;5039970;28;915;-70
2023/02/12 00:30:11;;;;;;;;;;;17.30;59.10;;;;;;5039073;28;1898;-71
2023/02/12 00:32:36;;;;;;;;;;;17.30;59.10;;;;;;5042911;28;887;-70
2023/02/12 00:35:02;;;;;;;;;;;17.30;59.10;;;;;;5040870;28;925;-70
2023/02/12 00:37:27;;;;;;;;;;;17.30;59.10;;;;;;5039840;28;816;-71
2023/02/12 00:39:53;;;;;;;;;;;17.30;59.20;;;;;;5037011;28;1220;-71
2023/02/12 00:42:18;;;;;;;;;;;17.20;59.10;;;;;;5072163;28;1264;-71
2023/02/12 00:44:43;;;;;;;;;;;17.20;59.10;;;;;;5041222;28;1281;-71
2023/02/12 00:47:09;;;;;;;;;;;17.20;59.10;;;;;;5038654;28;900;-71
2023/02/12 00:49:34;;;;;;;;;;;17.20;59.10;;;;;;5037408;28;1898;-71
2023/02/12 00:52:00;;;;;;;;;;;17.20;59.10;;;;;;5042775;28;914;-69
2023/02/12 00:54:26;;;;;;;;;;;17.20;59.10;;;;;;5039182;28;821;-71
2023/02/12 00:56:51;;;;;;;;;;;17.20;59.10;;;;;;5066223;28;920;-71
2023/02/12 00:59:17;;;;;;;;;;;17.20;59.10;;;;;;5038958;28;1250;-71
2023/02/12 01:01:42;;;;;;;;;;;17.20;59.10;;;;;;5040373;28;995;-71
2023/02/12 01:04:08;;;;;;;;;;;17.20;59.10;;;;;;5039608;28;1293;-71
2023/02/12 01:06:33;;;;;;;;;;;17.20;59.10;;;;;;5040748;28;824;-70
2023/02/12 01:09:00;;;;;;;;;;;17.20;59.20;;;;;;5041275;28;876;-71
2023/02/12 01:11:26;;;;;;;;;;;17.20;59.20;;;;;;5039412;28;1914;-72
2023/02/12 01:13:51;;;;;;;;;;;17.20;59.20;;;;;;5040152;28;840;-71
2023/02/12 01:16:18;;;;;;;;;;;17.20;59.20;;;;;;5040859;28;839;-70
2023/02/12 01:18:43;;;;;;;;;;;17.20;59.20;;;;;;5037668;28;990;-71
2023/02/12 01:21:13;;;;;;;;;;;17.20;59.20;;;;;;5071078;28;1342;-70
2023/02/12 01:23:39;;;;;;;;;;;17.20;59.20;;;;;;5068010;28;907;-71
2023/02/12 01:26:06;;;;;;;;;;;17.20;59.20;;;;;;5036279;28;854;-69
2023/02/12 01:28:32;;;;;;;;;;;17.20;59.20;;;;;;5038828;28;848;-69
2023/02/12 01:30:57;;;;;;;;;;;17.20;59.20;;;;;;5038312;28;1910;-69
2023/02/12 01:33:23;;;;;;;;;;;17.20;59.20;;;;;;5038329;28;785;-68
2023/02/12 01:35:48;;;;;;;;;;;17.20;59.30;;;;;;5072753;28;999;-70
2023/02/12 01:38:14;;;;;;;;;;;17.20;59.30;;;;;;5040307;28;888;-71
2023/02/12 01:40:39;;;;;;;;;;;17.20;59.30;;;;;;5036464;28;1272;-69
2023/02/12 01:43:05;;;;;;;;;;;17.20;59.30;;;;;;5038495;28;855;-71
2023/02/12 01:45:47;;;;;;;;;;;17.20;59.30;;;;;;5071344;28;925;-71
2023/02/12 01:48:13;;;;;;;;;;;17.20;59.30;;;;;;5039470;28;870;-70
2023/02/12 01:50:39;;;;;;;;;;;17.20;59.30;;;;;;5069773;28;1910;-70
2023/02/12 01:53:04;;;;;;;;;;;17.20;59.30;;;;;;5040955;28;1119;-71
2023/02/12 01:55:29;;;;;;;;;;;17.20;59.40;;;;;;5067906;28;882;-69
2023/02/12 01:57:55;;;;;;;;;;;17.20;59.30;;;;;;5038685;28;844;-71
2023/02/12 02:00:23;;;;;;;;;;;17.20;59.40;;;;;;5068948;28;1349;-70
2023/02/12 02:02:50;;;;;;;;;;;17.20;59.40;;;;;;5068630;28;1109;-70
2023/02/12 02:05:17;;;;;;;;;;;17.20;59.40;;;;;;5069722;28;1380;-70
2023/02/12 02:07:42;;;;;;;;;;;17.20;59.40;;;;;;5069419;28;1029;-70
2023/02/12 02:10:08;;;;;;;;;;;17.10;59.30;;;;;;5041330;28;1910;-71
2023/02/12 02:15:17;;;;;;;;;;;17.10;59.40;;;;;;5037318;28;809;-70
2023/02/12 02:17:43;;;;;;;;;;;17.10;59.40;;;;;;5072822;28;915;-71
2023/02/12 02:20:11;;;;;;;;;;;17.10;59.40;;;;;;5072817;28;1199;-71
2023/02/12 02:22:39;;;;;;;;;;;17.10;59.40;;;;;;5036342;28;999;-69
2023/02/12 02:25:24;;;;;;;;;;;17.10;59.40;;;;;;5067909;28;883;-70
2023/02/12 02:27:49;;;;;;;;;;;17.10;59.40;;;;;;5039838;28;936;-70
2023/02/12 02:30:22;;;;;;;;;;;17.10;59.40;;;;;;5037536;28;1971;-71
2023/02/12 02:32:55;;;;;;;;;;;17.10;59.40;;;;;;5038718;28;832;-69
2023/02/12 02:35:30;;;;;;;;;;;17.10;59.40;;;;;;5071147;28;957;-70
2023/02/12 02:38:04;;;;;;;;;;;17.10;59.40;;;;;;5069832;28;915;-71
2023/02/12 02:40:31;;;;;;;;;;;17.10;59.40;;;;;;5040842;28;1298;-70
2023/02/12 02:42:58;;;;;;;;;;;17.10;59.50;;;;;;5039390;28;961;-70
2023/02/12 02:45:26;;;;;;;;;;;17.10;59.40;;;;;;5055361;28;1381;-70
2023/02/12 02:47:57;;;;;;;;;;;17.10;59.50;;;;;;5070032;28;813;-71
2023/02/12 02:50:23;;;;;;;;;;;17.10;59.50;;;;;;5057493;28;1973;-71
2023/02/12 02:52:49;;;;;;;;;;;17.10;59.50;;;;;;5070885;28;868;-70
2023/02/12 02:55:15;;;;;;;;;;;17.10;59.50;;;;;;5074468;28;872;-70
2023/02/12 02:57:44;;;;;;;;;;;17.10;59.50;;;;;;5074659;28;882;-70
2023/02/12 03:00:13;;;;;;;;;;;17.10;59.50;;;;;;5075683;28;1365;-71
2023/02/12 03:02:39;;;;;;;;;;;17.10;59.50;;;;;;5039205;28;926;-70
2023/02/12 03:05:09;;;;;;;;;;;17.10;59.50;;;;;;5073315;28;1290;-70
2023/02/12 03:07:35;;;;;;;;;;;17.10;59.50;;;;;;5072194;28;995;-71
2023/02/12 03:10:02;;;;;;;;;;;17.10;59.50;;;;;;5059574;28;1988;-70
2023/02/12 03:12:30;;;;;;;;;;;17.10;59.50;;;;;;5072441;28;903;-70
2023/02/12 03:15:15;;;;;;;;;;;17.10;59.50;;;;;;5070736;28;971;-71
2023/02/12 03:17:42;;;;;;;;;;;17.10;60.10;;;;;;5071785;28;867;-70
2023/02/12 03:20:27;;;;;;;;;;;17.10;59.50;;;;;;5073913;28;1263;-70
2023/02/12 03:22:55;;;;;;;;;;;17.10;60.20;;;;;;5042261;28;1032;-70
2023/02/12 03:25:22;;;;;;;;;;;17.10;59.60;;;;;;5041906;28;866;-71
2023/02/12 03:28:20;;;;;;;;;;;17.10;59.60;;;;;;5040024;28;931;-70
2023/02/12 03:31:04;;;;;;;;;;;17.10;59.60;;;;;;5035127;28;1973;-70
2023/02/12 03:33:34;;;;;;;;;;;17.10;59.60;;;;;;5041724;28;911;-71
2023/02/12 03:36:02;;;;;;;;;;;17.10;59.60;;;;;;5041859;28;1048;-70
2023/02/12 03:38:27;;;;;;;;;;;17.10;59.60;;;;;;5073135;28;864;-70
2023/02/12 03:40:57;;;;;;;;;;;17.10;59.60;;;;;;5039507;28;1367;-70
2023/02/12 03:43:31;;;;;;;;;;;17.10;59.60;;;;;;5073544;28;1077;-69
2023/02/12 03:46:16;;;;;;;;;;;17.10;59.60;;;;;;5070652;28;1038;-70
2023/02/12 03:48:44;;;;;;;;;;;17.10;59.60;;;;;;5040306;28;968;-70
2023/02/12 03:51:12;;;;;;;;;;;17.00;59.60;;;;;;5071609;28;1973;-71
2023/02/12 03:53:38;;;;;;;;;;;17.00;59.60;;;;;;5038997;28;876;-71
2023/02/12 03:56:04;;;;;;;;;;;17.00;59.60;;;;;;5059078;28;1310;-71
2023/02/12 03:58:31;;;;;;;;;;;17.00;59.60;;;;;;5072649;28;792;-71
2023/02/12 04:00:57;;;;;;;;;;;17.00;59.60;;;;;;5071900;28;1248;-70
2023/02/12 04:03:22;;;;;;;;;;;17.00;59.60;;;;;;5074312;28;1308;-71
2023/02/12 04:05:48;;;;;;;;;;;17.00;59.60;;;;;;5067330;28;1308;-71
2023/02/12 04:08:13;;;;;;;;;;;17.00;59.60;;;;;;5038662;28;838;-71
2023/02/12 04:10:38;;;;;;;;;;;17.00;59.60;;;;;;5061021;28;1938;-70
2023/02/12 04:13:25;;;;;;;;;;;17.00;59.60;;;;;;5072113;28;1066;-71
2023/02/12 04:15:57;;;;;;;;;;;17.00;59.60;;;;;;5071982;28;911;-71
2023/02/12 04:18:41;;;;;;;;;;;17.00;59.60;;;;;;5041286;28;745;-70
2023/02/12 04:21:18;;;;;;;;;;;17.00;59.60;;;;;;5040613;28;1389;-71
2023/02/12 04:23:46;;;;;;;;;;;17.00;59.70;;;;;;5040742;28;809;-71
2023/02/12 04:26:22;;;;;;;;;;;17.00;59.70;;;;;;5073357;28;974;-73
2023/02/12 04:28:55;;;;;;;;;;;17.00;59.70;;;;;;5038607;28;891;-73
2023/02/12 04:31:22;;;;;;;;;;;17.00;59.70;;;;;;5071697;28;1980;-71
2023/02/12 04:33:51;;;;;;;;;;;17.00;59.70;;;;;;5073803;28;847;-71
2023/02/12 04:36:19;;;;;;;;;;;17.00;59.70;;;;;;5059205;28;1350;-71
2023/02/12 04:38:54;;;;;;;;;;;17.00;59.70;;;;;;5040300;28;934;-70
2023/02/12 04:41:19;;;;;;;;;;;17.00;59.70;;;;;;5074831;28;1410;-72
2023/02/12 04:43:45;;;;;;;;;;;17.00;59.70;;;;;;5039058;28;800;-71
2023/02/12 04:46:10;;;;;;;;;;;17.00;59.70;;;;;;5038494;28;860;-71
2023/02/12 04:48:36;;;;;;;;;;;17.00;59.80;;;;;;5045376;28;1011;-71
2023/02/12 04:51:02;;;;;;;;;;;17.00;59.70;;;;;;5072468;28;2032;-71
2023/02/12 04:53:27;;;;;;;;;;;17.00;59.70;;;;;;5038927;28;876;-70
2023/02/12 04:55:54;;;;;;;;;;;17.00;59.70;;;;;;5072121;28;1037;-74
2023/02/12 04:58:19;;;;;;;;;;;17.00;59.70;;;;;;5044627;28;876;-70
2023/02/12 05:00:45;;;;;;;;;;;17.00;59.70;;;;;;5044061;28;1241;-70
2023/02/12 05:03:10;;;;;;;;;;;17.00;59.80;;;;;;5037928;28;820;-71
2023/02/12 05:05:35;;;;;;;;;;;17.00;59.80;;;;;;5039070;28;1233;-71
2023/02/12 05:08:01;;;;;;;;;;;17.00;59.70;;;;;;5037172;28;828;-71
2023/02/12 05:10:26;;;;;;;;;;;17.00;59.70;;;;;;5039148;28;2307;-70
2023/02/12 05:12:52;;;;;;;;;;;17.00;59.70;;;;;;5071988;28;879;-70
2023/02/12 05:15:18;;;;;;;;;;;17.00;59.60;;;;;;5039767;28;966;-70
2023/02/12 05:17:44;;;;;;;;;;;17.10;59.60;;;;;;5039236;28;840;-71
2023/02/12 05:20:10;;;;;;;;;;;17.10;59.50;;;;;;5038149;28;1238;-69
2023/02/12 05:22:35;;;;;;;;;;;17.20;59.50;;;;;;5070027;28;879;-70
2023/02/12 05:25:01;;;;;;;;;;;17.20;59.30;;;;;;5038562;28;1054;-70
2023/02/12 05:27:26;;;;;;;;;;;17.30;59.20;;;;;;5038706;28;844;-70
2023/02/12 05:29:52;;;;;;;;;;;17.20;59.10;;;;;;5035622;28;1969;-70
2023/02/12 05:32:17;;;;;;;;;;;17.30;59.00;;;;;;5041241;28;1200;-70
2023/02/12 05:34:43;;;;;;;;;;;17.30;58.90;;;;;;5040627;28;980;-70
2023/02/12 05:37:08;;;;;;;;;;;17.30;58.80;;;;;;5039656;28;1003;-70
2023/02/12 05:39:34;;;;;;;;;;;17.40;58.80;;;;;;5039423;28;1369;-70
2023/02/12 05:41:59;;;;;;;;;;;17.40;58.70;;;;;;5038317;28;1342;-70
2023/02/12 05:44:25;;;;;;;;;;;17.40;58.60;;;;;;5039346;28;812;-69
2023/02/12 05:46:50;;;;;;;;;;;17.50;58.60;;;;;;5039303;28;877;-69
2023/02/12 05:49:15;;;;;;;;;;;17.50;58.60;;;;;;5041297;28;1347;-70
2023/02/12 05:51:41;;;;;;;;;;;17.50;58.50;;;;;;5038300;28;1898;-70
2023/02/12 05:54:06;;;;;;;;;;;17.60;58.50;;;;;;5067866;28;803;-70
2023/02/12 05:56:32;;;;;;;;;;;17.70;58.40;;;;;;5066351;28;886;-70
2023/02/12 05:59:02;;;;;;;;;;;17.80;58.30;;;;;;5037702;28;1618;-70
2023/02/12 06:01:28;;;;;;;;;;;17.90;58.10;;;;;;5058012;28;1280;-70
2023/02/12 06:03:54;;;;;;;;;;;18.10;57.90;;;;;;5068231;28;1376;-69
2023/02/12 06:06:19;;;;;;;;;;;18.30;57.60;;;;;;5068488;28;910;-69
2023/02/12 06:08:48;;;;;;;;;;;18.40;57.20;;;;;;5071687;28;919;-69
2023/02/12 06:11:14;;;;;;;;;;;18.60;56.80;;;;;;5070013;28;1971;-69
2023/02/12 06:13:39;;;;;;;;;;;18.70;57.10;;;;;;5070028;28;835;-69
2023/02/12 06:16:05;;;;;;;;;;;18.90;56.20;;;;;;5039745;28;1433;-69
2023/02/12 06:18:30;;;;;;;;;;;19.10;56.00;;;;;;5039992;28;1037;-69
2023/02/12 06:20:56;;;;;;;;;;;19.20;55.70;;;;;;5039333;28;1370;-70
2023/02/12 06:23:22;;;;;;;;;;;19.30;55.50;;;;;;5067814;28;864;-70
2023/02/12 06:25:48;;;;;;;;;;;19.40;55.30;;;;;;5070306;28;881;-69
2023/02/12 06:28:13;;;;;;;;;;;19.50;55.10;;;;;;5036677;28;824;-69
2023/02/12 06:30:38;;;;;;;;;;;19.60;54.90;;;;;;5049164;28;1906;-69
2023/02/12 06:33:04;;;;;;;;;;;19.70;54.70;;;;;;5041955;28;931;-70
2023/02/12 06:35:29;;;;;;;;;;;19.70;54.50;;;;;;5073793;28;1423;-70
2023/02/12 06:37:55;;;;;;;;;;;19.80;54.40;;;;;;5073605;28;870;-69
2023/02/12 06:40:20;;;;;;;;;;;19.80;54.20;;;;;;5075451;28;1292;-70
2023/02/12 06:42:46;;;;;;;;;;;19.90;54.10;;;;;;5076039;28;867;-70
2023/02/12 06:45:11;;;;;;;;;;;19.90;54.00;;;;;;5042539;28;819;-69
2023/02/12 06:47:37;;;;;;;;;;;20.00;54.00;;;;;;5039910;28;1493;-70
2023/02/12 06:50:02;;;;;;;;;;;20.00;53.90;;;;;;5072064;28;1905;-70
2023/02/12 06:52:29;;;;;;;;;;;20.00;53.80;;;;;;5042141;28;868;-70
2023/02/12 06:54:54;;;;;;;;;;;20.10;53.80;;;;;;5043761;28;847;-69
2023/02/12 06:57:20;;;;;;;;;;;20.10;53.70;;;;;;5041213;28;923;-69
2023/02/12 06:59:45;;;;;;;;;;;20.10;53.70;;;;;;5041909;28;1248;-70
2023/02/12 07:02:10;;;;;;;;;;;20.10;53.70;;;;;;5039121;28;1823;-70
2023/02/12 07:04:37;;;;;;;;;;;20.20;53.70;;;;;;5040530;28;2019;-68
2023/02/12 07:07:02;;;;;;;;;;;20.10;53.60;;;;;;5044549;28;1440;-70
2023/02/12 07:09:28;;;;;;;;;;;20.20;53.70;;;;;;5072521;28;1374;-69
2023/02/12 07:11:55;;;;;;;;;;;20.20;53.70;;;;;;5038923;28;2109;-70
2023/02/12 07:14:20;;;;;;;;;;;20.20;53.70;;;;;;5042396;28;1475;-68
2023/02/12 07:16:46;;;;;;;;;;;20.10;53.80;;;;;;5040890;28;1253;-70
2023/02/12 07:19:11;;;;;;;;;;;20.10;53.80;;;;;;5044587;28;1362;-71
2023/02/12 07:21:37;;;;;;;;;;;20.10;53.90;;;;;;5071819;28;1211;-69
2023/02/12 07:24:02;;;;;;;;;;;20.10;54.00;;;;;;5042072;28;1192;-68
2023/02/12 07:26:28;;;;;;;;;;;20.00;54.10;;;;;;5040155;28;913;-69
2023/02/12 07:28:53;;;;;;;;;;;20.00;54.20;;;;;;5041081;28;911;-69
2023/02/12 07:31:22;;;;;;;;;;;20.00;54.20;;;;;;5071668;28;1965;-69
2023/02/12 07:33:47;;;;;;;;;;;19.90;54.40;;;;;;5070297;28;1010;-69
2023/02/12 07:36:14;;;;;;;;;;;19.90;54.50;;;;;;5057127;28;1324;-68
2023/02/12 07:38:39;;;;;;;;;;;19.90;54.50;;;;;;5040807;28;1092;-69
2023/02/12 07:41:09;;;;;;;;;;;19.90;54.60;;;;;;5071555;28;1449;-70
2023/02/12 07:43:34;;;;;;;;;;;19.90;54.60;;;;;;5073677;28;823;-69
2023/02/12 07:46:09;;;;;;;;;;;19.90;54.70;;;;;;5040078;28;892;-69
2023/02/12 07:48:35;;;;;;;;;;;19.80;54.70;;;;;;5048018;28;1717;-68
2023/02/12 07:51:07;;;;;;;;;;;19.90;54.80;;;;;;5041075;28;1906;-68
2023/02/12 07:53:33;;;;;;;;;;;19.80;54.80;;;;;;5071746;28;966;-69
2023/02/12 07:56:07;;;;;;;;;;;19.80;54.80;;;;;;5037979;28;844;-68
2023/02/12 07:58:33;;;;;;;;;;;19.90;54.80;;;;;;5041059;28;1144;-68
2023/02/12 08:00:59;;;;;;;;;;;19.90;54.80;;;;;;5070559;28;2117;-69
2023/02/12 08:03:26;;;;;;;;;;;19.90;54.70;;;;;;5041839;28;1399;-71
2023/02/12 08:05:51;;;;;;;;;;;19.90;54.70;;;;;;5043161;28;1312;-69
2023/02/12 08:08:17;;;;;;;;;;;19.90;54.70;;;;;;5044138;28;1420;-70
2023/02/12 08:10:42;;;;;;;;;;;19.90;54.90;;;;;;5042487;28;1906;-69
2023/02/12 08:13:08;;;;;;;;;;;19.90;54.90;;;;;;5042179;28;1319;-69
2023/02/12 08:15:33;;;;;;;;;;;19.90;55.20;;;;;;5041621;28;1352;-69
2023/02/12 08:18:00;;;;;;;;;;;19.90;55.40;;;;;;5036649;28;1307;-70
2023/02/12 08:20:25;;;;;;;;;;;19.90;55.90;;;;;;5039878;28;1235;-69
2023/02/12 08:22:51;;;;;;;;;;;19.90;56.20;;;;;;5041568;28;847;-69
2023/02/12 08:25:16;;;;;;;;;;;19.90;56.00;;;;;;5044214;28;857;-69
2023/02/12 08:27:42;;;;;;;;;;;19.90;56.00;;;;;;5044396;28;907;-69
2023/02/12 08:30:08;;;;;;;;;;;19.90;56.00;;;;;;5040638;28;1926;-69
2023/02/12 08:32:33;;;;;;;;;;;19.90;56.10;;;;;;5041038;28;883;-69
2023/02/12 08:34:58;;;;;;;;;;;19.90;56.20;;;;;;5037910;28;1259;-70
2023/02/12 08:37:24;;;;;;;;;;;19.90;56.40;;;;;;5039389;28;849;-69
2023/02/12 08:39:49;;;;;;;;;;;20.00;56.60;;;;;;5071283;28;1268;-70
2023/02/12 08:42:15;;;;;;;;;;;19.90;56.70;;;;;;5040745;28;1259;-69
2023/02/12 08:44:41;;;;;;;;;;;20.00;57.00;;;;;;5041492;28;852;-69
2023/02/12 08:47:07;;;;;;;;;;;19.90;57.20;;;;;;5071920;28;858;-70
2023/02/12 08:49:32;;;;;;;;;;;19.90;57.30;;;;;;5038305;28;1257;-69
2023/02/12 08:51:58;;;;;;;;;;;19.90;57.60;;;;;;5039807;28;1969;-70
2023/02/12 08:54:24;;;;;;;;;;;19.90;57.80;;;;;;5070031;28;909;-69
2023/02/12 08:56:49;;;;;;;;;;;19.90;58.00;;;;;;5070739;28;907;-70
2023/02/12 08:59:15;;;;;;;;;;;19.90;58.20;;;;;;5039686;28;1243;-69
2023/02/12 09:01:41;;;;;;;;;;;19.90;59.20;;;;;;5040044;28;1045;-69
2023/02/12 09:04:07;;;;;;;;;;;19.90;58.80;;;;;;5069070;28;1279;-69
2023/02/12 09:06:33;;;;;;;;;;;19.90;58.70;;;;;;5052877;28;911;-69
2023/02/12 09:08:58;;;;;;;;;;;19.80;58.80;;;;;;5070569;28;1057;-69
2023/02/12 09:11:30;;;;;;;;;;;19.90;58.70;;;;;;5072049;28;1906;-70
2023/02/12 09:14:00;;;;;;;;;;;19.90;58.70;;;;;;5069531;28;870;-70
2023/02/12 09:16:26;;;;;;;;;;;19.90;58.90;;;;;;5038748;28;897;-70
2023/02/12 09:18:52;;;;;;;;;;;19.80;58.90;;;;;;5038619;28;1018;-70
2023/02/12 09:21:18;;;;;;;;;;;19.80;58.90;;;;;;5071441;28;1355;-69
2023/02/12 09:23:44;;;;;;;;;;;19.80;58.90;;;;;;5042145;28;906;-70
2023/02/12 09:26:10;;;;;;;;;;;19.80;59.10;;;;;;5035303;28;840;-68
2023/02/12 09:28:36;;;;;;;;;;;19.80;59.00;;;;;;5055593;28;1479;-69
2023/02/12 09:31:05;;;;;;;;;;;19.80;59.70;;;;;;5071720;28;1960;-69
2023/02/12 09:33:30;;;;;;;;;;;19.70;59.10;;;;;;5068702;28;1050;-68
2023/02/12 09:35:59;;;;;;;;;;;19.70;59.10;;;;;;5038286;28;1275;-69
2023/02/12 09:38:25;;;;;;;;;;;19.70;59.10;;;;;;5072265;28;915;-68
2023/02/12 09:40:53;;;;;;;;;;;19.70;59.20;;;;;;5040731;28;1351;-69
2023/02/12 09:43:23;;;;;;;;;;;19.70;59.30;;;;;;5037523;28;1646;-69
2023/02/12 09:45:51;;;;;;;;;;;19.70;59.30;;;;;;5068688;28;924;-69
2023/02/12 09:48:16;;;;;;;;;;;19.70;59.20;;;;;;5071765;28;824;-70
2023/02/12 09:50:42;;;;;;;;;;;19.70;59.30;;;;;;5037442;28;1958;-69
2023/02/12 09:53:09;;;;;;;;;;;19.60;59.30;;;;;;5035661;28;922;-69
2023/02/12 09:55:34;;;;;;;;;;;19.70;59.40;;;;;;5068685;28;713;-69
2023/02/12 09:58:01;;;;;;;;;;;19.60;59.30;;;;;;5054330;28;1157;-69
2023/02/12 10:00:27;;;;;;;;;;;19.60;59.40;;;;;;5046441;28;1341;-69
2023/02/12 10:02:53;;;;;;;;;;;19.60;59.40;;;;;;5076799;28;838;-69
2023/02/12 10:05:19;;;;;;;;;;;19.60;59.50;;;;;;5076389;28;1278;-69
2023/02/12 10:08:01;;;;;;;;;;;19.60;59.70;;;;;;5061210;28;1270;-69
2023/02/12 10:10:39;;;;;;;;;;;19.60;59.70;;;;;;5075955;28;1930;-69
2023/02/12 10:13:12;;;;;;;;;;;19.60;59.80;;;;;;5075020;28;914;-69
2023/02/12 10:15:38;;;;;;;;;;;19.60;59.80;;;;;;5074392;28;894;-69
2023/02/12 10:18:12;;;;;;;;;;;19.60;59.90;;;;;;5043330;28;869;-69
2023/02/12 10:20:45;;;;;;;;;;;19.60;59.90;;;;;;5043201;28;1770;-70
2023/02/12 10:23:34;;;;;;;;;;;19.60;60.10;;;;;;5073343;28;898;-69
2023/02/12 10:26:12;;;;;;;;;;;19.60;60.10;;;;;;5028148;28;1236;-70
2023/02/12 10:28:38;;;;;;;;;;;19.60;60.30;;;;;;5075382;28;1077;-70
2023/02/12 10:31:07;;;;;;;;;;;19.50;60.40;;;;;;5072280;28;1965;-69
2023/02/12 10:33:47;;;;;;;;;;;19.50;60.70;;;;;;5032439;28;4321;-69
2023/02/12 10:36:16;;;;;;;;;;;19.50;61.00;;;;;;5069149;28;5069;-69
2023/02/12 10:38:41;;;;;;;;;;;19.50;61.00;;;;;;5041453;28;909;-69
2023/02/12 10:41:08;;;;;;;;;;;19.50;61.00;;;;;;5074333;28;1289;-69
2023/02/12 10:43:34;;;;;;;;;;;19.50;61.00;;;;;;5076328;28;878;-69
2023/02/12 10:45:59;;;;;;;;;;;19.50;60.90;;;;;;5038213;28;840;-70
2023/02/12 10:48:36;;;;;;;;;;;19.50;61.00;;;;;;5042922;28;935;-70
2023/02/12 10:51:03;;;;;;;;;;;19.40;60.80;;;;;;5069792;28;1975;-69
2023/02/12 10:53:31;;;;;;;;;;;19.40;60.70;;;;;;5073437;28;856;-70
2023/02/12 10:56:05;;;;;;;;;;;19.50;60.90;;;;;;5041842;28;839;-70
2023/02/12 10:58:31;;;;;;;;;;;19.50;61.00;;;;;;5041068;28;908;-70
2023/02/12 11:00:57;;;;;;;;;;;19.50;61.00;;;;;;5042652;28;1250;-70
2023/02/12 11:03:23;;;;;;;;;;;19.40;61.00;;;;;;5073758;28;1352;-69
2023/02/12 11:05:49;;;;;;;;;;;19.40;61.00;;;;;;5058930;28;1183;-70
2023/02/12 11:08:34;;;;;;;;;;;19.40;60.90;;;;;;5075122;28;914;-70
2023/02/12 11:11:07;;;;;;;;;;;19.40;61.00;;;;;;5039718;28;1910;-69
2023/02/12 11:13:33;;;;;;;;;;;19.40;60.90;;;;;;5040720;28;915;-69
2023/02/12 11:16:00;;;;;;;;;;;19.40;60.90;;;;;;5071170;28;860;-70
2023/02/12 11:18:26;;;;;;;;;;;19.40;60.90;;;;;;5036133;28;1296;-69
2023/02/12 11:20:53;;;;;;;;;;;19.30;60.80;;;;;;5040952;28;1310;-71
2023/02/12 11:23:26;;;;;;;;;;;19.30;60.90;;;;;;5074950;28;860;-70
2023/02/12 11:25:58;;;;;;;;;;;19.30;60.90;;;;;;5040016;28;821;-69
2023/02/12 11:28:23;;;;;;;;;;;19.30;60.90;;;;;;5039346;28;1560;-70
2023/02/12 11:30:49;;;;;;;;;;;19.30;60.80;;;;;;5070327;28;1898;-69
2023/02/12 11:33:15;;;;;;;;;;;19.30;60.80;;;;;;5038342;28;995;-70
2023/02/12 11:35:47;;;;;;;;;;;19.30;61.00;;;;;;5072619;28;1377;-70
2023/02/12 11:38:17;;;;;;;;;;;19.30;61.00;;;;;;5073426;28;958;-69
2023/02/12 11:40:44;;;;;;;;;;;19.30;61.00;;;;;;5072544;28;1359;-69
2023/02/12 11:43:12;;;;;;;;;;;19.30;61.10;;;;;;5072506;28;1085;-69
2023/02/12 11:45:38;;;;;;;;;;;19.20;61.10;;;;;;5038593;28;896;-69
2023/02/12 11:48:09;;;;;;;;;;;19.30;61.20;;;;;;5040642;28;895;-69
2023/02/12 11:50:35;;;;;;;;;;;19.30;61.40;;;;;;5072571;28;1925;-69
2023/02/12 11:53:06;;;;;;;;;;;19.20;61.40;;;;;;5071172;28;874;-70
2023/02/12 11:55:33;;;;;;;;;;;19.20;61.30;;;;;;5038366;28;1205;-69
2023/02/12 11:58:15;;;;;;;;;;;19.20;61.50;;;;;;5070811;28;1281;-70
2023/02/12 12:00:45;;;;;;;;;;;19.20;61.60;;;;;;5068227;28;1268;-70
2023/02/12 12:03:14;;;;;;;;;;;19.10;61.60;;;;;;5069889;28;899;-70
2023/02/12 12:05:44;;;;;;;;;;;19.10;61.80;;;;;;5069608;28;1152;-69
2023/02/12 12:08:18;;;;;;;;;;;19.20;62.10;;;;;;5073281;28;1026;-69
2023/02/12 12:10:46;;;;;;;;;;;19.20;62.10;;;;;;5072360;28;2108;-70
2023/02/12 12:13:12;;;;;;;;;;;19.20;62.10;;;;;;5074892;28;1869;-69
2023/02/12 12:21:35;;;;;;;;;;;19.20;62.10;;;;;;5043750;28;1419;-70
2023/02/12 12:24:09;;;;;;;;;;;19.20;62.00;;;;;;5038033;28;1319;-69
2023/02/12 12:26:35;;;;;;;;;;;19.20;62.10;;;;;;5074951;28;1188;-69
2023/02/12 12:29:05;;;;;;;;;;;19.20;62.20;;;;;;5077281;28;987;-68
2023/02/12 12:31:32;;;;;;;;;;;19.20;62.10;;;;;;5070932;28;1922;-69
2023/02/12 12:34:02;;;;;;;;;;;19.10;62.00;;;;;;5069948;28;862;-71
2023/02/12 12:36:36;;;;;;;;;;;19.20;62.10;;;;;;5040360;28;1288;-71
2023/02/12 12:39:17;;;;;;;;;;;19.20;62.00;;;;;;5053151;28;893;-71
2023/02/12 12:41:46;;;;;;;;;;;19.10;62.10;;;;;;5068640;28;1252;-71
2023/02/12 12:44:27;;;;;;;;;;;19.10;61.90;;;;;;5037197;28;873;-70
2023/02/12 12:47:11;;;;;;;;;;;19.10;62.00;;;;;;5038047;28;1168;-69
2023/02/12 12:49:43;;;;;;;;;;;19.10;62.20;;;;;;5039241;28;1235;-69
2023/02/12 12:52:11;;;;;;;;;;;19.10;62.00;;;;;;5071994;28;1913;-71
2023/02/12 12:54:49;;;;;;;;;;;19.20;62.20;;;;;;5040036;28;1043;-70
2023/02/12 12:57:23;;;;;;;;;;;19.20;62.10;;;;;;5041281;28;1018;-70
2023/02/12 13:00:08;;;;;;;;;;;19.20;62.00;;;;;;5038472;28;1365;-70
2023/02/12 13:02:52;;;;;;;;;;;19.20;62.00;;;;;;5071830;28;1381;-68
2023/02/12 13:05:18;;;;;;;;;;;19.20;61.70;;;;;;5039547;28;1037;-68
2023/02/12 13:07:59;;;;;;;;;;;19.20;58.50;;;;;;5037165;28;828;-69
2023/02/12 13:10:28;;;;;;;;;;;19.10;57.40;;;;;;5069941;28;1967;-68
2023/02/12 13:12:55;;;;;;;;;;;19.10;56.50;;;;;;5036751;28;1157;-69
2023/02/12 13:15:32;;;;;;;;;;;19.00;56.00;;;;;;5036849;28;801;-70
2023/02/12 13:18:04;;;;;;;;;;;18.90;56.40;;;;;;5039327;28;1331;-69
2023/02/12 13:20:48;;;;;;;;;;;18.90;56.50;;;;;;5070547;28;1938;-70
2023/02/12 13:23:14;;;;;;;;;;;18.90;56.80;;;;;;5038018;28;1255;-70
2023/02/12 13:25:46;;;;;;;;;;;18.90;57.00;;;;;;5069683;28;1461;-70
2023/02/12 13:28:18;;;;;;;;;;;18.90;57.20;;;;;;5038282;28;1338;-70
2023/02/12 13:30:44;;;;;;;;;;;18.90;57.50;;;;;;5070481;28;2120;-71
2023/02/12 13:33:11;;;;;;;;;;;18.90;57.70;;;;;;5072485;28;1383;-71
2023/02/12 13:35:38;;;;;;;;;;;18.80;57.80;;;;;;5069790;28;1995;-71
2023/02/12 13:38:04;;;;;;;;;;;18.80;57.90;;;;;;5044146;28;1364;-71
2023/02/12 13:40:29;;;;;;;;;;;18.90;58.00;;;;;;5073969;28;1435;-70
2023/02/12 13:43:01;;;;;;;;;;;18.80;58.10;;;;;;5042915;28;1470;-70
2023/02/12 13:45:32;;;;;;;;;;;18.80;58.10;;;;;;5037908;28;1181;-70
2023/02/12 13:48:16;;;;;;;;;;;18.80;58.20;;;;;;5041600;28;1409;-70
2023/02/12 13:50:56;;;;;;;;;;;18.80;58.20;;;;;;5039067;28;1918;-70
2023/02/12 13:53:25;;;;;;;;;;;18.80;58.30;;;;;;5068273;28;831;-70
2023/02/12 13:55:53;;;;;;;;;;;18.80;58.40;;;;;;5070759;28;1368;-70
2023/02/12 13:58:31;;;;;;;;;;;18.70;58.40;;;;;;5040133;28;870;-70
2023/02/12 14:00:56;;;;;;;;;;;18.80;58.50;;;;;;5039553;28;1333;-71
2023/02/12 14:03:22;;;;;;;;;;;18.80;58.60;;;;;;5043105;28;1365;-70
2023/02/12 14:05:48;;;;;;;;;;;18.70;58.60;;;;;;5037758;28;886;-70
2023/02/12 14:08:30;;;;;;;;;;;18.70;58.60;;;;;;5071982;28;903;-70
2023/02/12 14:11:09;;;;;;;;;;;18.70;58.70;;;;;;5073271;28;1909;-70
2023/02/12 14:13:36;;;;;;;;;;;18.70;58.70;;;;;;5070780;28;908;-71
2023/02/12 14:16:17;;;;;;;;;;;18.70;58.80;;;;;;5070571;28;876;-70
2023/02/12 14:18:42;;;;;;;;;;;18.70;58.80;;;;;;5069058;28;1041;-71
2023/02/12 14:21:07;;;;;;;;;;;18.70;58.80;;;;;;5035177;28;1369;-71
2023/02/12 14:23:33;;;;;;;;;;;18.70;58.90;;;;;;5038961;28;884;-70
2023/02/12 14:26:02;;;;;;;;;;;18.60;58.80;;;;;;5038140;28;1312;-70
2023/02/12 14:28:28;;;;;;;;;;;18.60;58.90;;;;;;5055871;28;2086;-71
2023/02/12 14:31:18;;;;;;;;;;;18.60;58.90;;;;;;5036562;28;1975;-70
2023/02/12 14:33:44;;;;;;;;;;;18.60;59.00;;;;;;5069072;28;1555;-71
2023/02/12 14:36:13;;;;;;;;;;;18.60;59.00;;;;;;5039946;28;1357;-71
2023/02/12 14:38:38;;;;;;;;;;;18.60;59.00;;;;;;5036342;28;2282;-71
2023/02/12 14:41:36;;;;;;;;;;;18.60;59.10;;;;;;5039898;28;2047;-71
2023/02/12 14:44:16;;;;;;;;;;;18.60;59.10;;;;;;5037561;28;1341;-71
2023/02/12 14:46:54;;;;;;;;;;;18.50;59.10;;;;;;5038520;28;1821;-71
2023/02/12 14:49:23;;;;;;;;;;;18.50;59.10;;;;;;5046617;28;1406;-70
2023/02/12 14:52:03;;;;;;;;;;;18.50;59.10;;;;;;5045344;28;1894;-68